sensor_id;sensor_type;location;lat;lon;timestamp;P1;durP1;ratioP1;P2;durP2;ratioP2
4726;SDS011;2377;51.734;8.950;2023-03-01T00:01:10;10.70;;;6.27;;
4726;SDS011;2377;51.734;8.950;2023-03-01T00:03:40;10.70;;;6.60;;
4726;SDS011;2377;51.734;8.950;2023-03-01T00:06:09;8.87;;;5.90;;
4726;SDS011;2377;51.734;8.950;2023-03-01T00:08:37;9.40;;;5.63;;
4726;SDS011;2377;51.734;8.950;2023-03-01T00:11:05;9.20;;;6.30;;
4726;SDS011;2377;51.734;8.950;2023-03-01T00:13:36;12.17;;;6.70;;
4726;SDS011;2377;51.734;8.950;2023-03-01T00:16:03;8.80;;;6.23;;
4726;SDS011;2377;51.734;8.950;2023-03-01T00:18:32;10.60;;;6.37;;
4726;SDS011;2377;51.734;8.950;2023-03-01T00:21:00;11.40;;;7.00;;
4726;SDS011;2377;51.734;8.950;2023-03-01T00:23:28;12.47;;;6.50;;
4726;SDS011;2377;51.734;8.950;2023-03-01T00:25:56;10.47;;;6.27;;
4726;SDS011;2377;51.734;8.950;2023-03-01T00:28:23;10.50;;;7.27;;
4726;SDS011;2377;51.734;8.950;2023-03-01T00:30:50;11.67;;;6.03;;
4726;SDS011;2377;51.734;8.950;2023-03-01T00:33:17;11.63;;;6.97;;
4726;SDS011;2377;51.734;8.950;2023-03-01T00:35:44;8.77;;;5.90;;
4726;SDS011;2377;51.734;8.950;2023-03-01T00:38:12;10.53;;;6.67;;
4726;SDS011;2377;51.734;8.950;2023-03-01T00:40:40;12.20;;;6.37;;
4726;SDS011;2377;51.734;8.950;2023-03-01T00:43:07;12.07;;;6.53;;
4726;SDS011;2377;51.734;8.950;2023-03-01T00:45:35;9.67;;;6.23;;
4726;SDS011;2377;51.734;8.950;2023-03-01T00:48:02;11.27;;;6.07;;
4726;SDS011;2377;51.734;8.950;2023-03-01T00:50:30;10.50;;;6.33;;
4726;SDS011;2377;51.734;8.950;2023-03-01T00:52:57;11.63;;;6.60;;
4726;SDS011;2377;51.734;8.950;2023-03-01T00:55:25;10.87;;;6.10;;
4726;SDS011;2377;51.734;8.950;2023-03-01T00:57:53;11.87;;;5.80;;
4726;SDS011;2377;51.734;8.950;2023-03-01T01:00:20;9.10;;;6.03;;
4726;SDS011;2377;51.734;8.950;2023-03-01T01:02:48;12.27;;;6.07;;
4726;SDS011;2377;51.734;8.950;2023-03-01T01:05:15;9.70;;;6.00;;
4726;SDS011;2377;51.734;8.950;2023-03-01T01:07:45;10.43;;;6.00;;
4726;SDS011;2377;51.734;8.950;2023-03-01T01:10:13;10.73;;;5.70;;
4726;SDS011;2377;51.734;8.950;2023-03-01T01:12:42;9.30;;;5.57;;
4726;SDS011;2377;51.734;8.950;2023-03-01T01:15:12;10.70;;;5.43;;
4726;SDS011;2377;51.734;8.950;2023-03-01T01:17:41;9.20;;;5.50;;
4726;SDS011;2377;51.734;8.950;2023-03-01T01:20:09;11.63;;;5.90;;
4726;SDS011;2377;51.734;8.950;2023-03-01T01:22:37;11.50;;;6.40;;
4726;SDS011;2377;51.734;8.950;2023-03-01T01:25:05;9.50;;;5.90;;
4726;SDS011;2377;51.734;8.950;2023-03-01T01:27:32;10.33;;;5.57;;
4726;SDS011;2377;51.734;8.950;2023-03-01T01:29:59;10.53;;;6.30;;
4726;SDS011;2377;51.734;8.950;2023-03-01T01:32:28;11.33;;;6.50;;
4726;SDS011;2377;51.734;8.950;2023-03-01T01:34:55;10.17;;;5.70;;
4726;SDS011;2377;51.734;8.950;2023-03-01T01:37:22;9.30;;;5.67;;
4726;SDS011;2377;51.734;8.950;2023-03-01T01:39:56;9.93;;;5.20;;
4726;SDS011;2377;51.734;8.950;2023-03-01T01:42:24;9.80;;;5.30;;
4726;SDS011;2377;51.734;8.950;2023-03-01T01:48:04;10.97;;;6.10;;
4726;SDS011;2377;51.734;8.950;2023-03-01T01:50:39;13.43;;;6.73;;
4726;SDS011;2377;51.734;8.950;2023-03-01T01:53:10;10.93;;;6.10;;
4726;SDS011;2377;51.734;8.950;2023-03-01T01:55:43;9.30;;;5.60;;
4726;SDS011;2377;51.734;8.950;2023-03-01T01:58:15;10.50;;;5.93;;
4726;SDS011;2377;51.734;8.950;2023-03-01T02:00:47;10.07;;;5.80;;
4726;SDS011;2377;51.734;8.950;2023-03-01T02:03:18;11.53;;;5.80;;
4726;SDS011;2377;51.734;8.950;2023-03-01T02:05:55;9.67;;;6.23;;
4726;SDS011;2377;51.734;8.950;2023-03-01T02:08:30;10.80;;;5.33;;
4726;SDS011;2377;51.734;8.950;2023-03-01T02:11:03;12.30;;;6.73;;
4726;SDS011;2377;51.734;8.950;2023-03-01T02:13:30;7.63;;;5.00;;
4726;SDS011;2377;51.734;8.950;2023-03-01T02:15:59;11.73;;;6.53;;
4726;SDS011;2377;51.734;8.950;2023-03-01T02:18:31;11.83;;;6.50;;
4726;SDS011;2377;51.734;8.950;2023-03-01T02:21:02;9.53;;;6.30;;
4726;SDS011;2377;51.734;8.950;2023-03-01T02:23:43;12.33;;;6.70;;
4726;SDS011;2377;51.734;8.950;2023-03-01T02:26:14;12.13;;;6.50;;
4726;SDS011;2377;51.734;8.950;2023-03-01T02:28:51;9.93;;;5.57;;
4726;SDS011;2377;51.734;8.950;2023-03-01T02:31:19;11.17;;;6.20;;
4726;SDS011;2377;51.734;8.950;2023-03-01T02:34:04;10.77;;;7.17;;
4726;SDS011;2377;51.734;8.950;2023-03-01T02:36:34;9.50;;;6.00;;
4726;SDS011;2377;51.734;8.950;2023-03-01T02:39:04;9.57;;;6.10;;
4726;SDS011;2377;51.734;8.950;2023-03-01T02:41:40;13.07;;;6.67;;
4726;SDS011;2377;51.734;8.950;2023-03-01T02:44:14;10.07;;;6.37;;
4726;SDS011;2377;51.734;8.950;2023-03-01T02:46:42;11.03;;;6.90;;
4726;SDS011;2377;51.734;8.950;2023-03-01T02:49:19;12.70;;;7.30;;
4726;SDS011;2377;51.734;8.950;2023-03-01T02:52:02;12.00;;;6.03;;
4726;SDS011;2377;51.734;8.950;2023-03-01T02:54:52;11.87;;;5.87;;
4726;SDS011;2377;51.734;8.950;2023-03-01T02:57:27;11.30;;;6.33;;
4726;SDS011;2377;51.734;8.950;2023-03-01T02:59:59;7.97;;;5.20;;
4726;SDS011;2377;51.734;8.950;2023-03-01T03:02:33;8.70;;;5.40;;
4726;SDS011;2377;51.734;8.950;2023-03-01T03:05:06;15.17;;;7.97;;
4726;SDS011;2377;51.734;8.950;2023-03-01T03:07:36;10.33;;;6.40;;
4726;SDS011;2377;51.734;8.950;2023-03-01T03:10:07;12.57;;;6.50;;
4726;SDS011;2377;51.734;8.950;2023-03-01T03:12:37;8.70;;;6.23;;
4726;SDS011;2377;51.734;8.950;2023-03-01T03:15:07;9.87;;;5.33;;
4726;SDS011;2377;51.734;8.950;2023-03-01T03:17:38;9.80;;;6.10;;
4726;SDS011;2377;51.734;8.950;2023-03-01T03:20:08;10.37;;;6.10;;
4726;SDS011;2377;51.734;8.950;2023-03-01T03:22:44;10.30;;;6.67;;
4726;SDS011;2377;51.734;8.950;2023-03-01T03:25:12;14.10;;;7.07;;
4726;SDS011;2377;51.734;8.950;2023-03-01T03:27:40;11.73;;;7.10;;
4726;SDS011;2377;51.734;8.950;2023-03-01T03:30:12;9.77;;;6.40;;
4726;SDS011;2377;51.734;8.950;2023-03-01T03:32:43;13.60;;;6.60;;
4726;SDS011;2377;51.734;8.950;2023-03-01T03:35:17;10.77;;;6.20;;
4726;SDS011;2377;51.734;8.950;2023-03-01T03:37:45;12.20;;;6.93;;
4726;SDS011;2377;51.734;8.950;2023-03-01T03:40:28;10.40;;;6.03;;
4726;SDS011;2377;51.734;8.950;2023-03-01T03:42:57;12.30;;;6.50;;
4726;SDS011;2377;51.734;8.950;2023-03-01T03:45:26;13.90;;;6.27;;
4726;SDS011;2377;51.734;8.950;2023-03-01T03:47:54;9.57;;;5.77;;
4726;SDS011;2377;51.734;8.950;2023-03-01T03:50:21;14.43;;;6.70;;
4726;SDS011;2377;51.734;8.950;2023-03-01T03:52:48;12.47;;;7.50;;
4726;SDS011;2377;51.734;8.950;2023-03-01T03:55:15;10.23;;;6.40;;
4726;SDS011;2377;51.734;8.950;2023-03-01T03:57:45;9.83;;;5.43;;
4726;SDS011;2377;51.734;8.950;2023-03-01T04:00:16;10.73;;;6.30;;
4726;SDS011;2377;51.734;8.950;2023-03-01T04:02:48;9.50;;;5.93;;
4726;SDS011;2377;51.734;8.950;2023-03-01T04:05:16;11.70;;;6.00;;
4726;SDS011;2377;51.734;8.950;2023-03-01T04:07:45;10.30;;;5.87;;
4726;SDS011;2377;51.734;8.950;2023-03-01T04:10:13;11.17;;;6.30;;
4726;SDS011;2377;51.734;8.950;2023-03-01T04:12:43;11.40;;;6.10;;
4726;SDS011;2377;51.734;8.950;2023-03-01T04:15:11;9.43;;;5.67;;
4726;SDS011;2377;51.734;8.950;2023-03-01T04:17:38;10.97;;;6.40;;
4726;SDS011;2377;51.734;8.950;2023-03-01T04:20:09;11.03;;;6.60;;
4726;SDS011;2377;51.734;8.950;2023-03-01T04:22:39;8.30;;;5.23;;
4726;SDS011;2377;51.734;8.950;2023-03-01T04:25:07;9.70;;;5.80;;
4726;SDS011;2377;51.734;8.950;2023-03-01T04:27:39;13.23;;;6.53;;
4726;SDS011;2377;51.734;8.950;2023-03-01T04:30:08;10.70;;;6.37;;
4726;SDS011;2377;51.734;8.950;2023-03-01T04:32:36;9.80;;;6.10;;
4726;SDS011;2377;51.734;8.950;2023-03-01T04:35:04;9.07;;;5.90;;
4726;SDS011;2377;51.734;8.950;2023-03-01T04:37:32;8.67;;;5.77;;
4726;SDS011;2377;51.734;8.950;2023-03-01T04:40:00;9.90;;;5.40;;
4726;SDS011;2377;51.734;8.950;2023-03-01T04:42:31;8.83;;;5.23;;
4726;SDS011;2377;51.734;8.950;2023-03-01T04:44:58;9.10;;;5.57;;
4726;SDS011;2377;51.734;8.950;2023-03-01T04:47:25;12.37;;;6.80;;
4726;SDS011;2377;51.734;8.950;2023-03-01T04:49:52;11.17;;;6.47;;
4726;SDS011;2377;51.734;8.950;2023-03-01T04:52:19;9.40;;;5.83;;
4726;SDS011;2377;51.734;8.950;2023-03-01T04:54:48;16.00;;;6.87;;
4726;SDS011;2377;51.734;8.950;2023-03-01T04:57:15;11.90;;;7.33;;
4726;SDS011;2377;51.734;8.950;2023-03-01T04:59:42;13.00;;;6.90;;
4726;SDS011;2377;51.734;8.950;2023-03-01T05:02:09;16.27;;;8.87;;
4726;SDS011;2377;51.734;8.950;2023-03-01T05:04:36;17.53;;;9.87;;
4726;SDS011;2377;51.734;8.950;2023-03-01T05:07:03;16.53;;;8.90;;
4726;SDS011;2377;51.734;8.950;2023-03-01T05:09:30;10.67;;;6.43;;
4726;SDS011;2377;51.734;8.950;2023-03-01T05:11:58;15.03;;;7.53;;
4726;SDS011;2377;51.734;8.950;2023-03-01T05:14:26;12.87;;;6.70;;
4726;SDS011;2377;51.734;8.950;2023-03-01T05:16:53;13.60;;;7.97;;
4726;SDS011;2377;51.734;8.950;2023-03-01T05:19:28;10.27;;;6.10;;
4726;SDS011;2377;51.734;8.950;2023-03-01T05:21:56;14.60;;;7.70;;
4726;SDS011;2377;51.734;8.950;2023-03-01T05:24:30;11.17;;;6.30;;
4726;SDS011;2377;51.734;8.950;2023-03-01T05:27:01;15.40;;;6.97;;
4726;SDS011;2377;51.734;8.950;2023-03-01T05:29:30;11.10;;;5.90;;
4726;SDS011;2377;51.734;8.950;2023-03-01T05:32:00;9.63;;;5.33;;
4726;SDS011;2377;51.734;8.950;2023-03-01T05:34:29;10.90;;;6.40;;
4726;SDS011;2377;51.734;8.950;2023-03-01T05:36:59;12.10;;;6.10;;
4726;SDS011;2377;51.734;8.950;2023-03-01T05:39:27;11.10;;;6.60;;
4726;SDS011;2377;51.734;8.950;2023-03-01T05:41:57;13.47;;;7.93;;
4726;SDS011;2377;51.734;8.950;2023-03-01T05:44:28;13.87;;;7.57;;
4726;SDS011;2377;51.734;8.950;2023-03-01T05:46:55;14.80;;;6.70;;
4726;SDS011;2377;51.734;8.950;2023-03-01T05:49:23;12.80;;;6.90;;
4726;SDS011;2377;51.734;8.950;2023-03-01T05:51:51;15.87;;;7.63;;
4726;SDS011;2377;51.734;8.950;2023-03-01T05:54:19;10.20;;;6.20;;
4726;SDS011;2377;51.734;8.950;2023-03-01T05:56:47;10.97;;;6.37;;
4726;SDS011;2377;51.734;8.950;2023-03-01T05:59:16;10.63;;;6.40;;
4726;SDS011;2377;51.734;8.950;2023-03-01T06:01:43;10.40;;;6.20;;
4726;SDS011;2377;51.734;8.950;2023-03-01T06:04:10;10.90;;;6.40;;
4726;SDS011;2377;51.734;8.950;2023-03-01T06:06:37;10.80;;;5.43;;
4726;SDS011;2377;51.734;8.950;2023-03-01T06:09:04;10.70;;;6.40;;
4726;SDS011;2377;51.734;8.950;2023-03-01T06:11:34;12.17;;;6.00;;
4726;SDS011;2377;51.734;8.950;2023-03-01T06:14:02;9.90;;;5.63;;
4726;SDS011;2377;51.734;8.950;2023-03-01T06:16:32;10.47;;;5.83;;
4726;SDS011;2377;51.734;8.950;2023-03-01T06:18:59;11.60;;;6.57;;
4726;SDS011;2377;51.734;8.950;2023-03-01T06:21:26;14.17;;;6.80;;
4726;SDS011;2377;51.734;8.950;2023-03-01T06:23:53;13.20;;;6.70;;
4726;SDS011;2377;51.734;8.950;2023-03-01T06:26:20;11.30;;;6.10;;
4726;SDS011;2377;51.734;8.950;2023-03-01T06:28:48;12.70;;;6.90;;
4726;SDS011;2377;51.734;8.950;2023-03-01T06:31:15;11.17;;;5.90;;
4726;SDS011;2377;51.734;8.950;2023-03-01T06:33:47;12.37;;;6.37;;
4726;SDS011;2377;51.734;8.950;2023-03-01T06:36:14;11.80;;;6.80;;
4726;SDS011;2377;51.734;8.950;2023-03-01T06:38:43;13.90;;;7.43;;
4726;SDS011;2377;51.734;8.950;2023-03-01T06:41:10;11.40;;;7.00;;
4726;SDS011;2377;51.734;8.950;2023-03-01T06:43:37;10.40;;;6.20;;
4726;SDS011;2377;51.734;8.950;2023-03-01T06:46:05;12.97;;;7.70;;
4726;SDS011;2377;51.734;8.950;2023-03-01T06:48:34;18.50;;;7.13;;
4726;SDS011;2377;51.734;8.950;2023-03-01T06:51:04;12.03;;;7.07;;
4726;SDS011;2377;51.734;8.950;2023-03-01T06:53:31;13.40;;;7.40;;
4726;SDS011;2377;51.734;8.950;2023-03-01T06:55:58;13.03;;;7.80;;
4726;SDS011;2377;51.734;8.950;2023-03-01T06:58:26;16.43;;;7.43;;
4726;SDS011;2377;51.734;8.950;2023-03-01T07:00:53;13.30;;;7.80;;
4726;SDS011;2377;51.734;8.950;2023-03-01T07:03:20;15.20;;;8.30;;
4726;SDS011;2377;51.734;8.950;2023-03-01T07:05:48;17.17;;;8.87;;
4726;SDS011;2377;51.734;8.950;2023-03-01T07:08:18;15.30;;;8.30;;
4726;SDS011;2377;51.734;8.950;2023-03-01T07:10:45;14.50;;;8.47;;
4726;SDS011;2377;51.734;8.950;2023-03-01T07:13:12;17.10;;;9.20;;
4726;SDS011;2377;51.734;8.950;2023-03-01T07:15:39;16.17;;;8.90;;
4726;SDS011;2377;51.734;8.950;2023-03-01T07:18:07;13.60;;;8.47;;
4726;SDS011;2377;51.734;8.950;2023-03-01T07:20:34;17.20;;;8.33;;
4726;SDS011;2377;51.734;8.950;2023-03-01T07:23:01;15.73;;;8.10;;
4726;SDS011;2377;51.734;8.950;2023-03-01T07:25:30;16.10;;;9.13;;
4726;SDS011;2377;51.734;8.950;2023-03-01T07:27:57;16.30;;;8.83;;
4726;SDS011;2377;51.734;8.950;2023-03-01T07:30:24;14.80;;;8.90;;
4726;SDS011;2377;51.734;8.950;2023-03-01T07:32:53;14.40;;;8.30;;
4726;SDS011;2377;51.734;8.950;2023-03-01T07:35:21;17.13;;;9.13;;
4726;SDS011;2377;51.734;8.950;2023-03-01T07:37:49;18.50;;;11.10;;
4726;SDS011;2377;51.734;8.950;2023-03-01T07:40:16;21.70;;;12.13;;
4726;SDS011;2377;51.734;8.950;2023-03-01T07:42:45;20.43;;;12.23;;
4726;SDS011;2377;51.734;8.950;2023-03-01T07:45:12;20.77;;;11.60;;
4726;SDS011;2377;51.734;8.950;2023-03-01T07:47:39;18.10;;;9.60;;
4726;SDS011;2377;51.734;8.950;2023-03-01T07:50:07;23.13;;;10.20;;
4726;SDS011;2377;51.734;8.950;2023-03-01T07:52:36;16.20;;;9.20;;
4726;SDS011;2377;51.734;8.950;2023-03-01T07:55:03;14.43;;;8.10;;
4726;SDS011;2377;51.734;8.950;2023-03-01T07:57:31;14.90;;;7.83;;
4726;SDS011;2377;51.734;8.950;2023-03-01T07:59:59;12.60;;;7.80;;
4726;SDS011;2377;51.734;8.950;2023-03-01T08:02:26;11.47;;;7.30;;
4726;SDS011;2377;51.734;8.950;2023-03-01T08:04:54;14.43;;;8.20;;
4726;SDS011;2377;51.734;8.950;2023-03-01T08:07:21;11.77;;;7.80;;
4726;SDS011;2377;51.734;8.950;2023-03-01T08:09:48;12.53;;;7.57;;
4726;SDS011;2377;51.734;8.950;2023-03-01T08:12:15;13.73;;;8.30;;
4726;SDS011;2377;51.734;8.950;2023-03-01T08:14:42;14.87;;;7.23;;
4726;SDS011;2377;51.734;8.950;2023-03-01T08:17:12;14.33;;;7.30;;
4726;SDS011;2377;51.734;8.950;2023-03-01T08:19:40;15.43;;;8.57;;
4726;SDS011;2377;51.734;8.950;2023-03-01T08:22:08;15.70;;;8.07;;
4726;SDS011;2377;51.734;8.950;2023-03-01T08:24:35;16.87;;;7.40;;
4726;SDS011;2377;51.734;8.950;2023-03-01T08:27:02;13.33;;;7.87;;
4726;SDS011;2377;51.734;8.950;2023-03-01T08:29:31;11.40;;;7.27;;
4726;SDS011;2377;51.734;8.950;2023-03-01T08:31:58;13.77;;;7.60;;
4726;SDS011;2377;51.734;8.950;2023-03-01T08:34:27;14.27;;;8.60;;
4726;SDS011;2377;51.734;8.950;2023-03-01T08:36:56;14.33;;;7.17;;
4726;SDS011;2377;51.734;8.950;2023-03-01T08:39:23;13.60;;;8.00;;
4726;SDS011;2377;51.734;8.950;2023-03-01T08:41:50;10.97;;;7.17;;
4726;SDS011;2377;51.734;8.950;2023-03-01T08:44:17;15.23;;;7.97;;
4726;SDS011;2377;51.734;8.950;2023-03-01T08:46:45;14.27;;;7.47;;
4726;SDS011;2377;51.734;8.950;2023-03-01T08:49:15;16.67;;;8.00;;
4726;SDS011;2377;51.734;8.950;2023-03-01T08:51:46;13.03;;;7.70;;
4726;SDS011;2377;51.734;8.950;2023-03-01T08:54:14;12.00;;;7.10;;
4726;SDS011;2377;51.734;8.950;2023-03-01T08:56:44;15.83;;;7.90;;
4726;SDS011;2377;51.734;8.950;2023-03-01T08:59:13;14.30;;;7.60;;
4726;SDS011;2377;51.734;8.950;2023-03-01T09:01:42;12.53;;;7.70;;
4726;SDS011;2377;51.734;8.950;2023-03-01T09:04:09;13.93;;;7.63;;
4726;SDS011;2377;51.734;8.950;2023-03-01T09:06:36;11.70;;;7.10;;
4726;SDS011;2377;51.734;8.950;2023-03-01T09:09:05;13.23;;;7.40;;
4726;SDS011;2377;51.734;8.950;2023-03-01T09:11:39;14.80;;;7.57;;
4726;SDS011;2377;51.734;8.950;2023-03-01T09:14:07;13.97;;;7.50;;
4726;SDS011;2377;51.734;8.950;2023-03-01T09:16:34;13.70;;;6.93;;
4726;SDS011;2377;51.734;8.950;2023-03-01T09:19:01;16.53;;;7.17;;
4726;SDS011;2377;51.734;8.950;2023-03-01T09:21:30;12.27;;;7.00;;
4726;SDS011;2377;51.734;8.950;2023-03-01T09:23:57;12.77;;;6.23;;
4726;SDS011;2377;51.734;8.950;2023-03-01T09:26:26;9.63;;;6.20;;
4726;SDS011;2377;51.734;8.950;2023-03-01T09:28:53;12.00;;;6.90;;
4726;SDS011;2377;51.734;8.950;2023-03-01T09:31:23;12.60;;;7.20;;
4726;SDS011;2377;51.734;8.950;2023-03-01T09:33:52;13.77;;;6.57;;
4726;SDS011;2377;51.734;8.950;2023-03-01T09:36:21;11.97;;;7.00;;
4726;SDS011;2377;51.734;8.950;2023-03-01T09:38:51;12.23;;;6.33;;
4726;SDS011;2377;51.734;8.950;2023-03-01T09:41:24;10.57;;;6.00;;
4726;SDS011;2377;51.734;8.950;2023-03-01T09:44:10;10.53;;;6.43;;
4726;SDS011;2377;51.734;8.950;2023-03-01T09:46:50;10.90;;;6.73;;
4726;SDS011;2377;51.734;8.950;2023-03-01T09:49:18;11.37;;;6.77;;
4726;SDS011;2377;51.734;8.950;2023-03-01T09:51:54;14.00;;;7.03;;
4726;SDS011;2377;51.734;8.950;2023-03-01T09:54:29;11.10;;;6.63;;
4726;SDS011;2377;51.734;8.950;2023-03-01T09:57:01;10.50;;;6.43;;
4726;SDS011;2377;51.734;8.950;2023-03-01T09:59:50;11.90;;;6.30;;
4726;SDS011;2377;51.734;8.950;2023-03-01T10:02:38;12.47;;;6.83;;
4726;SDS011;2377;51.734;8.950;2023-03-01T10:05:15;11.07;;;6.40;;
4726;SDS011;2377;51.734;8.950;2023-03-01T10:08:02;11.20;;;6.70;;
4726;SDS011;2377;51.734;8.950;2023-03-01T10:10:54;8.80;;;5.77;;
4726;SDS011;2377;51.734;8.950;2023-03-01T10:13:25;10.93;;;6.37;;
4726;SDS011;2377;51.734;8.950;2023-03-01T10:16:01;11.90;;;6.67;;
4726;SDS011;2377;51.734;8.950;2023-03-01T10:18:39;13.50;;;6.97;;
4726;SDS011;2377;51.734;8.950;2023-03-01T10:21:13;14.80;;;6.13;;
4726;SDS011;2377;51.734;8.950;2023-03-01T10:23:44;13.07;;;7.10;;
4726;SDS011;2377;51.734;8.950;2023-03-01T10:26:17;10.80;;;6.57;;
4726;SDS011;2377;51.734;8.950;2023-03-01T10:29:07;12.60;;;6.53;;
4726;SDS011;2377;51.734;8.950;2023-03-01T10:31:38;10.70;;;6.57;;
4726;SDS011;2377;51.734;8.950;2023-03-01T10:34:13;9.27;;;6.13;;
4726;SDS011;2377;51.734;8.950;2023-03-01T10:36:43;11.20;;;6.87;;
4726;SDS011;2377;51.734;8.950;2023-03-01T10:39:16;11.43;;;6.63;;
4726;SDS011;2377;51.734;8.950;2023-03-01T10:41:53;11.17;;;6.03;;
4726;SDS011;2377;51.734;8.950;2023-03-01T10:44:37;10.80;;;6.13;;
4726;SDS011;2377;51.734;8.950;2023-03-01T10:47:15;11.83;;;7.33;;
4726;SDS011;2377;51.734;8.950;2023-03-01T10:49:56;13.80;;;7.03;;
4726;SDS011;2377;51.734;8.950;2023-03-01T10:52:29;11.97;;;7.57;;
4726;SDS011;2377;51.734;8.950;2023-03-01T10:55:02;11.67;;;7.47;;
4726;SDS011;2377;51.734;8.950;2023-03-01T10:57:51;12.33;;;6.87;;
4726;SDS011;2377;51.734;8.950;2023-03-01T11:00:46;12.80;;;7.10;;
4726;SDS011;2377;51.734;8.950;2023-03-01T11:03:18;14.70;;;7.40;;
4726;SDS011;2377;51.734;8.950;2023-03-01T11:05:53;9.40;;;6.10;;
4726;SDS011;2377;51.734;8.950;2023-03-01T11:08:29;11.47;;;6.77;;
4726;SDS011;2377;51.734;8.950;2023-03-01T11:11:03;13.47;;;7.40;;
4726;SDS011;2377;51.734;8.950;2023-03-01T11:13:49;9.47;;;6.20;;
4726;SDS011;2377;51.734;8.950;2023-03-01T11:16:32;9.93;;;5.40;;
4726;SDS011;2377;51.734;8.950;2023-03-01T11:19:13;13.37;;;6.40;;
4726;SDS011;2377;51.734;8.950;2023-03-01T11:21:56;10.53;;;5.63;;
4726;SDS011;2377;51.734;8.950;2023-03-01T11:24:30;11.53;;;5.83;;
4726;SDS011;2377;51.734;8.950;2023-03-01T11:27:08;10.97;;;6.43;;
4726;SDS011;2377;51.734;8.950;2023-03-01T11:29:46;20.50;;;6.30;;
4726;SDS011;2377;51.734;8.950;2023-03-01T11:32:25;16.70;;;6.87;;
4726;SDS011;2377;51.734;8.950;2023-03-01T11:35:01;10.33;;;6.13;;
4726;SDS011;2377;51.734;8.950;2023-03-01T11:37:38;13.23;;;7.73;;
4726;SDS011;2377;51.734;8.950;2023-03-01T11:40:16;9.87;;;6.07;;
4726;SDS011;2377;51.734;8.950;2023-03-01T11:42:56;13.63;;;6.70;;
4726;SDS011;2377;51.734;8.950;2023-03-01T11:45:38;12.27;;;6.13;;
4726;SDS011;2377;51.734;8.950;2023-03-01T11:48:46;10.87;;;6.43;;
4726;SDS011;2377;51.734;8.950;2023-03-01T11:51:24;12.90;;;6.90;;
4726;SDS011;2377;51.734;8.950;2023-03-01T11:54:12;9.30;;;6.10;;
4726;SDS011;2377;51.734;8.950;2023-03-01T11:57:08;9.20;;;5.77;;
4726;SDS011;2377;51.734;8.950;2023-03-01T11:59:52;13.80;;;6.17;;
4726;SDS011;2377;51.734;8.950;2023-03-01T12:09:04;8.90;;;5.97;;
4726;SDS011;2377;51.734;8.950;2023-03-01T12:11:56;14.70;;;6.10;;
4726;SDS011;2377;51.734;8.950;2023-03-01T12:14:53;11.17;;;6.40;;
4726;SDS011;2377;51.734;8.950;2023-03-01T12:17:59;10.00;;;5.97;;
4726;SDS011;2377;51.734;8.950;2023-03-01T12:20:46;12.40;;;6.57;;
4726;SDS011;2377;51.734;8.950;2023-03-01T12:23:38;8.20;;;5.63;;
4726;SDS011;2377;51.734;8.950;2023-03-01T12:26:50;16.03;;;7.50;;
4726;SDS011;2377;51.734;8.950;2023-03-01T12:29:41;10.57;;;6.07;;
4726;SDS011;2377;51.734;8.950;2023-03-01T12:32:28;10.60;;;6.17;;
4726;SDS011;2377;51.734;8.950;2023-03-01T12:35:20;10.10;;;5.70;;
4726;SDS011;2377;51.734;8.950;2023-03-01T12:38:24;10.73;;;5.90;;
4726;SDS011;2377;51.734;8.950;2023-03-01T12:44:12;8.57;;;5.20;;
4726;SDS011;2377;51.734;8.950;2023-03-01T12:47:14;9.97;;;5.47;;
4726;SDS011;2377;51.734;8.950;2023-03-01T12:50:05;10.30;;;6.33;;
4726;SDS011;2377;51.734;8.950;2023-03-01T12:52:43;9.97;;;5.80;;
4726;SDS011;2377;51.734;8.950;2023-03-01T12:55:25;10.00;;;5.53;;
4726;SDS011;2377;51.734;8.950;2023-03-01T12:58:03;9.13;;;5.63;;
4726;SDS011;2377;51.734;8.950;2023-03-01T13:00:42;9.90;;;5.80;;
4726;SDS011;2377;51.734;8.950;2023-03-01T13:03:31;8.63;;;5.30;;
4726;SDS011;2377;51.734;8.950;2023-03-01T13:06:32;9.93;;;5.70;;
4726;SDS011;2377;51.734;8.950;2023-03-01T13:09:10;10.30;;;5.80;;
4726;SDS011;2377;51.734;8.950;2023-03-01T13:11:51;9.80;;;5.50;;
4726;SDS011;2377;51.734;8.950;2023-03-01T13:14:39;9.07;;;5.17;;
4726;SDS011;2377;51.734;8.950;2023-03-01T13:17:32;8.40;;;5.80;;
4726;SDS011;2377;51.734;8.950;2023-03-01T13:20:12;9.57;;;5.57;;
4726;SDS011;2377;51.734;8.950;2023-03-01T13:22:42;11.80;;;6.37;;
4726;SDS011;2377;51.734;8.950;2023-03-01T13:25:14;8.80;;;6.37;;
4726;SDS011;2377;51.734;8.950;2023-03-01T13:27:44;9.50;;;5.17;;
4726;SDS011;2377;51.734;8.950;2023-03-01T13:33:33;11.10;;;5.70;;
4726;SDS011;2377;51.734;8.950;2023-03-01T13:36:11;9.20;;;5.60;;
4726;SDS011;2377;51.734;8.950;2023-03-01T13:39:27;9.63;;;6.07;;
4726;SDS011;2377;51.734;8.950;2023-03-01T13:42:32;8.83;;;5.40;;
4726;SDS011;2377;51.734;8.950;2023-03-01T13:45:00;9.43;;;5.30;;
4726;SDS011;2377;51.734;8.950;2023-03-01T13:47:28;10.43;;;6.50;;
4726;SDS011;2377;51.734;8.950;2023-03-01T13:49:59;14.80;;;6.90;;
4726;SDS011;2377;51.734;8.950;2023-03-01T13:52:32;12.70;;;7.27;;
4726;SDS011;2377;51.734;8.950;2023-03-01T13:55:16;11.20;;;6.70;;
4726;SDS011;2377;51.734;8.950;2023-03-01T13:57:48;12.67;;;6.30;;
4726;SDS011;2377;51.734;8.950;2023-03-01T14:00:33;12.83;;;7.07;;
4726;SDS011;2377;51.734;8.950;2023-03-01T14:03:05;14.10;;;7.17;;
4726;SDS011;2377;51.734;8.950;2023-03-01T14:05:39;13.83;;;7.37;;
4726;SDS011;2377;51.734;8.950;2023-03-01T14:08:18;12.20;;;5.63;;
4726;SDS011;2377;51.734;8.950;2023-03-01T14:10:52;11.50;;;6.30;;
4726;SDS011;2377;51.734;8.950;2023-03-01T14:13:39;10.83;;;6.97;;
4726;SDS011;2377;51.734;8.950;2023-03-01T14:16:28;10.10;;;6.17;;
4726;SDS011;2377;51.734;8.950;2023-03-01T14:19:12;10.40;;;6.13;;
4726;SDS011;2377;51.734;8.950;2023-03-01T14:21:45;10.93;;;6.40;;
4726;SDS011;2377;51.734;8.950;2023-03-01T14:24:20;9.43;;;6.33;;
4726;SDS011;2377;51.734;8.950;2023-03-01T14:26:49;12.17;;;6.40;;
4726;SDS011;2377;51.734;8.950;2023-03-01T14:29:23;12.73;;;6.60;;
4726;SDS011;2377;51.734;8.950;2023-03-01T14:31:52;13.80;;;7.20;;
4726;SDS011;2377;51.734;8.950;2023-03-01T14:34:21;11.70;;;7.70;;
4726;SDS011;2377;51.734;8.950;2023-03-01T14:36:50;12.47;;;7.53;;
4726;SDS011;2377;51.734;8.950;2023-03-01T14:39:18;12.57;;;7.77;;
4726;SDS011;2377;51.734;8.950;2023-03-01T14:41:51;10.23;;;6.90;;
4726;SDS011;2377;51.734;8.950;2023-03-01T14:44:19;10.23;;;6.70;;
4726;SDS011;2377;51.734;8.950;2023-03-01T14:46:51;10.33;;;6.63;;
4726;SDS011;2377;51.734;8.950;2023-03-01T14:49:24;11.37;;;7.27;;
4726;SDS011;2377;51.734;8.950;2023-03-01T14:51:57;12.47;;;7.63;;
4726;SDS011;2377;51.734;8.950;2023-03-01T14:54:28;13.40;;;7.30;;
4726;SDS011;2377;51.734;8.950;2023-03-01T14:57:05;17.67;;;7.83;;
4726;SDS011;2377;51.734;8.950;2023-03-01T14:59:40;11.30;;;6.70;;
4726;SDS011;2377;51.734;8.950;2023-03-01T15:02:11;9.83;;;6.10;;
4726;SDS011;2377;51.734;8.950;2023-03-01T15:04:46;13.37;;;6.30;;
4726;SDS011;2377;51.734;8.950;2023-03-01T15:07:18;14.23;;;7.50;;
4726;SDS011;2377;51.734;8.950;2023-03-01T15:09:46;12.27;;;7.07;;
4726;SDS011;2377;51.734;8.950;2023-03-01T15:15:19;10.27;;;6.40;;
4726;SDS011;2377;51.734;8.950;2023-03-01T15:17:56;13.27;;;5.77;;
4726;SDS011;2377;51.734;8.950;2023-03-01T15:20:29;13.43;;;7.33;;
4726;SDS011;2377;51.734;8.950;2023-03-01T15:23:00;11.23;;;6.20;;
4726;SDS011;2377;51.734;8.950;2023-03-01T15:25:29;12.77;;;7.00;;
4726;SDS011;2377;51.734;8.950;2023-03-01T15:27:59;12.40;;;6.60;;
4726;SDS011;2377;51.734;8.950;2023-03-01T15:30:29;11.30;;;6.10;;
4726;SDS011;2377;51.734;8.950;2023-03-01T15:33:20;14.80;;;7.40;;
4726;SDS011;2377;51.734;8.950;2023-03-01T15:35:59;11.47;;;6.70;;
4726;SDS011;2377;51.734;8.950;2023-03-01T15:38:30;12.30;;;6.57;;
4726;SDS011;2377;51.734;8.950;2023-03-01T15:41:06;10.70;;;6.70;;
4726;SDS011;2377;51.734;8.950;2023-03-01T15:43:50;9.33;;;5.77;;
4726;SDS011;2377;51.734;8.950;2023-03-01T15:46:22;10.20;;;5.90;;
4726;SDS011;2377;51.734;8.950;2023-03-01T15:48:55;12.10;;;6.60;;
4726;SDS011;2377;51.734;8.950;2023-03-01T15:51:30;10.03;;;6.37;;
4726;SDS011;2377;51.734;8.950;2023-03-01T15:54:01;9.40;;;5.93;;
4726;SDS011;2377;51.734;8.950;2023-03-01T15:56:32;12.10;;;6.17;;
4726;SDS011;2377;51.734;8.950;2023-03-01T15:59:00;11.00;;;5.97;;